Time;durP1;ratioP1;P1;durP2;ratioP2;P2;SDS_P1;SDS_P2;PMS_P1;PMS_P2;Temp;Humidity;BMP_temperature;BMP_pressure;BME280_temperature;BME280_humidity;BME280_pressure;Samples;Min_cycle;Max_cycle;Signal;HPM_P1;HPM_P2
2023/03/09 00:00:43;;;;;;;3.03;2.83;;;;;;;-0.50;100.00;98025.88;5068958;28;20170;-78
2023/03/09 00:03:15;;;;;;;3.33;2.97;;;;;;;-0.49;100.00;98035.50;5070321;28;20170;-78
2023/03/09 00:05:51;;;;;;;3.50;3.20;;;;;;;-0.50;100.00;98033.91;5070262;28;20166;-77
2023/03/09 00:08:16;;;;;;;0.10;0.10;;;;;;;-0.50;100.00;98032.03;5073310;28;20516;-76
2023/03/09 00:10:42;;;;;;;1.90;1.80;;;;;;;-0.51;100.00;98038.47;5074113;28;20544;-74
2023/03/09 00:13:07;;;;;;;1.33;1.17;;;;;;;-0.51;100.00;98024.28;5073912;28;20601;-78
2023/03/09 00:15:32;;;;;;;4.87;2.40;;;;;;;-0.53;100.00;98013.06;5072395;28;20214;-77
2023/03/09 00:17:58;;;;;;;5.87;4.50;;;;;;;-0.52;100.00;98003.91;5073632;28;20184;-76
2023/03/09 00:20:24;;;;;;;2.67;2.53;;;;;;;-0.55;100.00;98002.63;5073709;28;20170;-76
2023/03/09 00:22:53;;;;;;;0.63;0.63;;;;;;;-0.52;100.00;97995.88;5073818;28;20179;-75
2023/03/09 00:25:21;;;;;;;0.30;0.30;;;;;;;-0.52;100.00;97995.88;5073529;28;20228;-73
2023/03/09 00:27:48;;;;;;;6.30;5.70;;;;;;;-0.53;100.00;97992.41;5073476;28;20791;-77
2023/03/09 00:30:14;;;;;;;2.70;2.50;;;;;;;-0.52;100.00;97996.66;5072187;28;20917;-77
2023/03/09 00:32:39;;;;;;;2.37;2.03;;;;;;;-0.51;100.00;97981.38;5073578;28;20420;-77
2023/03/09 00:35:05;;;;;;;4.50;2.77;;;;;;;-0.50;100.00;97985.63;5073413;28;20420;-74
2023/03/09 00:37:31;;;;;;;20.40;11.20;;;;;;;-0.53;100.00;97981.69;5072061;28;20413;-76
2023/03/09 00:39:57;;;;;;;3.20;2.90;;;;;;;-0.52;100.00;97979.78;5073486;28;20178;-77
2023/03/09 00:42:22;;;;;;;2.60;2.33;;;;;;;-0.51;100.00;97984.06;5072144;28;20425;-76
2023/03/09 00:44:48;;;;;;;10.67;5.80;;;;;;;-0.52;100.00;97983.25;5073343;28;20667;-76
2023/03/09 00:47:13;;;;;;;12.17;8.73;;;;;;;-0.53;100.00;97980.88;5073235;28;20200;-77
2023/03/09 00:49:38;;;;;;;4.73;3.70;;;;;;;-0.53;100.00;97975.53;5073350;28;20532;-75
2023/03/09 00:52:04;;;;;;;3.97;1.77;;;;;;;-0.51;100.00;97973.31;5073282;28;20532;-74
2023/03/09 00:54:30;;;;;;;5.00;2.90;;;;;;;-0.53;100.00;97962.91;5073200;28;20187;-75
2023/03/09 00:56:55;;;;;;;6.43;2.83;;;;;;;-0.51;100.00;97965.28;5071656;28;20489;-77
2023/03/09 00:59:21;;;;;;;3.47;3.17;;;;;;;-0.54;100.00;97969.38;5071820;28;20183;-74
2023/03/09 01:01:46;;;;;;;8.47;7.50;;;;;;;-0.55;100.00;97966.97;5073206;28;20630;-77
2023/03/09 01:04:11;;;;;;;2.17;1.93;;;;;;;-0.55;100.00;97964.31;5073011;28;20182;-77
2023/03/09 01:06:37;;;;;;;3.77;2.90;;;;;;;-0.56;100.00;97952.00;5072722;28;20192;-76
2023/03/09 01:09:02;;;;;;;12.73;9.93;;;;;;;-0.60;100.00;97955.25;5072763;28;20198;-78
2023/03/09 01:11:27;;;;;;;3.17;2.93;;;;;;;-0.58;100.00;97943.44;5072907;28;20185;-76
2023/03/09 01:13:53;;;;;;;9.77;7.20;;;;;;;-0.58;100.00;97951.47;5072764;28;20332;-74
2023/03/09 01:16:19;;;;;;;1.37;1.27;;;;;;;-0.56;100.00;97952.78;5073090;28;20174;-75
2023/03/09 01:18:44;;;;;;;0.90;0.90;;;;;;;-0.55;100.00;97940.16;5072203;28;20194;-73
2023/03/09 01:21:10;;;;;;;0.97;0.93;;;;;;;-0.57;100.00;97939.69;5072733;28;20673;-77
2023/03/09 01:23:37;;;;;;;2.27;1.97;;;;;;;-0.57;100.00;97918.22;5072582;28;20185;-76
2023/03/09 01:26:03;;;;;;;4.03;3.67;;;;;;;-0.59;100.00;97921.19;5072465;28;20186;-77
2023/03/09 01:28:28;;;;;;;6.37;2.97;;;;;;;-0.58;100.00;97906.69;5072487;28;20960;-69
2023/03/09 01:30:54;;;;;;;5.93;3.53;;;;;;;-0.57;100.00;97907.50;5073832;28;20178;-70
2023/03/09 01:33:19;;;;;;;2.77;2.03;;;;;;;-0.61;100.00;97899.25;5080610;28;20552;-70
2023/03/09 01:35:44;;;;;;;2.53;2.33;;;;;;;-0.61;100.00;97900.03;5072902;28;20179;-70
2023/03/09 01:38:09;;;;;;;3.57;3.23;;;;;;;-0.61;100.00;97893.88;5072275;28;20228;-70
2023/03/09 01:40:35;;;;;;;4.47;4.10;;;;;;;-0.59;100.00;97899.75;5072547;28;20162;-70
2023/03/09 01:43:21;;;;;;;3.00;2.43;;;;;;;-0.62;100.00;97874.31;5072940;28;20177;-70
2023/03/09 01:45:46;;;;;;;7.47;5.50;;;;;;;-0.61;100.00;97880.47;5072324;28;20261;-70
2023/03/09 01:48:12;;;;;;;4.33;3.87;;;;;;;-0.62;100.00;97868.16;5072591;28;20559;-69
2023/03/09 01:50:37;;;;;;;2.87;2.10;;;;;;;-0.63;100.00;97867.38;5072151;28;20186;-70
2023/03/09 01:53:10;;;;;;;5.20;4.13;;;;;;;-0.62;100.00;97868.97;5072242;28;20179;-69
2023/03/09 01:55:44;;;;;;;5.83;4.87;;;;;;;-0.61;100.00;97877.78;5072086;28;20175;-70
2023/03/09 01:58:16;;;;;;;4.13;3.83;;;;;;;-0.62;100.00;97871.66;5070742;28;20459;-70
2023/03/09 02:00:44;;;;;;;2.33;1.93;;;;;;;-0.60;100.00;97880.19;5072010;28;20417;-71
2023/03/09 02:03:19;;;;;;;1.70;1.60;;;;;;;-0.60;100.00;97893.59;5071805;28;20512;-70
2023/03/09 02:05:45;;;;;;;5.03;3.57;;;;;;;-0.58;100.00;97895.16;5072102;28;21112;-70
2023/03/09 02:08:10;;;;;;;1.83;1.73;;;;;;;-0.57;100.00;97905.63;5071361;28;20551;-70
2023/03/09 02:10:41;;;;;;;2.37;2.20;;;;;;;-0.58;100.00;97897.84;5071786;28;20558;-70
2023/03/09 02:13:09;;;;;;;3.90;2.70;;;;;;;-0.60;100.00;97888.22;5071662;28;20262;-70
2023/03/09 02:15:35;;;;;;;5.50;3.80;;;;;;;-0.60;100.00;97898.94;5071514;28;20452;-70
2023/03/09 02:18:01;;;;;;;2.73;2.53;;;;;;;-0.60;100.00;97885.53;5071432;28;20417;-70
2023/03/09 02:20:45;;;;;;;4.03;3.23;;;;;;;-0.57;100.00;97902.16;5071491;28;20179;-69
2023/03/09 02:23:41;;;;;;;3.00;0.60;;;;;;;-0.59;100.00;97894.38;5070038;28;20792;-70
2023/03/09 02:26:40;;;;;;;2.70;1.97;;;;;;;-0.57;100.00;97902.94;5071448;28;20634;-70
2023/03/09 02:29:05;;;;;;;7.07;6.37;;;;;;;-0.56;100.00;97909.09;5070637;28;20552;-69
2023/03/09 02:31:31;;;;;;;1.53;1.03;;;;;;;-0.57;100.00;97912.88;5069888;28;20509;-71
2023/03/09 02:33:56;;;;;;;8.30;4.07;;;;;;;-0.59;100.00;97915.81;5071245;28;20171;-69
2023/03/09 02:36:23;;;;;;;15.93;5.43;;;;;;;-0.55;100.00;97921.41;5071070;28;20178;-69
2023/03/09 02:38:49;;;;;;;5.10;2.80;;;;;;;-0.61;100.00;97918.00;5071075;28;20273;-70
2023/03/09 02:41:14;;;;;;;6.90;6.10;;;;;;;-0.64;100.00;97921.31;5069832;28;20508;-69
2023/03/09 02:43:47;;;;;;;6.73;3.37;;;;;;;-0.62;100.00;97917.22;5071168;28;20202;-70
2023/03/09 02:46:13;;;;;;;3.33;3.10;;;;;;;-0.64;100.00;97922.09;5071107;28;20217;-69
2023/03/09 02:48:38;;;;;;;13.90;9.07;;;;;;;-0.67;100.00;97914.66;5070858;28;20543;-69
2023/03/09 02:51:05;;;;;;;9.33;6.77;;;;;;;-0.67;100.00;97911.19;5071385;28;20182;-70
2023/03/09 02:53:30;;;;;;;4.43;4.13;;;;;;;-0.70;100.00;97906.44;5071287;28;20203;-70
2023/03/09 02:55:56;;;;;;;4.20;3.43;;;;;;;-0.72;100.00;97908.63;5070964;28;20900;-70
2023/03/09 02:58:21;;;;;;;1.83;1.13;;;;;;;-0.72;100.00;97912.09;5070542;28;20193;-70
2023/03/09 03:00:46;;;;;;;5.60;2.87;;;;;;;-0.73;100.00;97913.16;5070411;28;20534;-71
2023/03/09 03:03:12;;;;;;;2.20;1.70;;;;;;;-0.74;100.00;97916.94;5071001;28;20193;-70
2023/03/09 03:05:37;;;;;;;4.47;3.00;;;;;;;-0.75;100.00;97923.38;5069187;28;20205;-70
2023/03/09 03:08:03;;;;;;;5.60;5.10;;;;;;;-0.79;100.00;97917.06;5070116;28;20215;-70
2023/03/09 03:10:28;;;;;;;6.23;5.50;;;;;;;-0.80;100.00;97910.09;5070705;28;20265;-70
2023/03/09 03:12:53;;;;;;;1.50;1.40;;;;;;;-0.76;100.00;97921.00;5069548;28;20516;-69
2023/03/09 03:15:19;;;;;;;2.60;2.40;;;;;;;-0.80;100.00;97920.03;5070471;28;20182;-70
2023/03/09 03:17:44;;;;;;;2.97;2.07;;;;;;;-0.79;100.00;97911.69;5070544;28;20178;-70
2023/03/09 03:20:14;;;;;;;10.03;4.90;;;;;;;-0.84;100.00;97903.75;5070658;28;20181;-70
2023/03/09 03:22:42;;;;;;;3.33;3.13;;;;;;;-0.83;100.00;97902.66;5070636;28;20182;-70
2023/03/09 03:25:08;;;;;;;6.70;4.90;;;;;;;-0.84;100.00;97911.81;5070836;28;20444;-70
2023/03/09 03:27:34;;;;;;;5.07;3.33;;;;;;;-0.82;100.00;97928.38;5069184;28;20451;-69
2023/03/09 03:30:00;;;;;;;1.23;1.13;;;;;;;-0.82;100.00;97924.91;5070466;28;20202;-70
2023/03/09 03:32:26;;;;;;;8.77;5.73;;;;;;;-0.85;100.00;97926.31;5070829;28;20506;-70
2023/03/09 03:34:51;;;;;;;3.50;3.20;;;;;;;-0.83;100.00;97926.00;5070879;28;20507;-70
2023/03/09 03:37:17;;;;;;;2.30;0.77;;;;;;;-0.82;100.00;97930.25;5070255;28;20630;-70
2023/03/09 03:39:42;;;;;;;1.23;1.13;;;;;;;-0.84;100.00;97935.94;5070563;28;20174;-70
2023/03/09 03:42:07;;;;;;;3.03;2.00;;;;;;;-0.84;100.00;97938.59;5072680;28;20213;-71
2023/03/09 03:44:33;;;;;;;0.70;0.70;;;;;;;-0.83;100.00;97947.44;5074312;28;20217;-69
2023/03/09 03:46:58;;;;;;;2.33;2.13;;;;;;;-0.82;100.00;97962.44;5074193;28;20278;-70
2023/03/09 03:49:23;;;;;;;14.73;5.00;;;;;;;-0.84;100.00;97975.34;5073091;28;20214;-70
2023/03/09 03:51:49;;;;;;;5.93;4.20;;;;;;;-0.83;100.00;97980.41;5074390;28;20597;-71
2023/03/09 03:54:14;;;;;;;5.23;4.17;;;;;;;-0.85;100.00;97954.97;5074338;28;20730;-70
2023/03/09 03:56:39;;;;;;;2.30;2.10;;;;;;;-0.85;100.00;97966.50;5074178;28;20175;-70
2023/03/09 03:59:04;;;;;;;6.07;5.13;;;;;;;-0.86;100.00;97975.63;5073974;28;20185;-71
2023/03/09 04:01:30;;;;;;;13.70;7.77;;;;;;;-0.88;100.00;97974.31;5074240;28;20171;-70
2023/03/09 04:03:55;;;;;;;2.37;1.50;;;;;;;-0.86;100.00;97977.53;5074098;28;20193;-70
2023/03/09 04:06:21;;;;;;;0.77;0.30;;;;;;;-0.82;100.00;97976.63;5074089;28;20187;-70
2023/03/09 04:08:46;;;;;;;3.93;2.87;;;;;;;-0.85;100.00;97982.59;5073824;28;20206;-70
2023/03/09 04:11:12;;;;;;;1.23;1.10;;;;;;;-0.83;100.00;97982.28;5073915;28;20247;-71
2023/03/09 04:13:37;;;;;;;1.87;1.77;;;;;;;-0.84;100.00;97994.09;5073776;28;20172;-70
2023/03/09 04:16:02;;;;;;;0.60;0.60;;;;;;;-0.84;100.00;98002.13;5074050;28;20166;-70
2023/03/09 04:18:28;;;;;;;3.40;1.63;;;;;;;-0.83;100.00;98007.19;5073608;28;20186;-70
2023/03/09 04:20:53;;;;;;;5.63;5.00;;;;;;;-0.85;100.00;98009.38;5073874;28;20171;-69
2023/03/09 04:23:19;;;;;;;3.10;2.73;;;;;;;-0.84;100.00;98007.50;5073689;28;20171;-70
2023/03/09 04:25:53;;;;;;;8.23;4.33;;;;;;;-0.82;100.00;98008.00;5073749;28;20311;-69
2023/03/09 04:28:18;;;;;;;3.20;3.00;;;;;;;-0.82;100.00;98008.00;5073351;28;20194;-71
2023/03/09 04:30:43;;;;;;;4.53;3.90;;;;;;;-0.82;100.00;98008.00;5073454;28;20418;-71
2023/03/09 04:33:09;;;;;;;2.60;2.50;;;;;;;-0.84;100.00;98010.19;5073566;28;20540;-70
2023/03/09 04:35:34;;;;;;;2.23;2.13;;;;;;;-0.84;100.00;98018.22;5073611;28;20263;-70
2023/03/09 04:38:00;;;;;;;1.93;1.40;;;;;;;-0.83;100.00;98036.69;5073294;28;20451;-69
2023/03/09 04:40:25;;;;;;;3.97;2.97;;;;;;;-0.82;100.00;98032.91;5073463;28;20167;-70
2023/03/09 04:42:51;;;;;;;3.93;2.33;;;;;;;-0.82;100.00;98045.50;5073282;28;20175;-69
2023/03/09 04:45:16;;;;;;;1.70;1.60;;;;;;;-0.80;100.00;98049.47;5073243;28;20173;-70
2023/03/09 04:47:41;;;;;;;7.93;5.40;;;;;;;-0.82;100.00;98053.56;5073046;28;20304;-70
2023/03/09 04:50:08;;;;;;;1.40;1.30;;;;;;;-0.80;100.00;98054.84;5073241;28;20209;-71
2023/03/09 04:52:34;;;;;;;2.20;2.03;;;;;;;-0.82;100.00;98042.84;5072338;28;20167;-70
2023/03/09 04:54:59;;;;;;;6.30;3.20;;;;;;;-0.81;100.00;98041.75;5073182;28;20525;-70
2023/03/09 04:57:24;;;;;;;4.90;3.20;;;;;;;-0.84;100.00;98040.44;5072816;28;20173;-71
2023/03/09 04:59:50;;;;;;;4.00;3.23;;;;;;;-0.85;100.00;98028.16;5073267;28;20622;-70
2023/03/09 05:02:15;;;;;;;0.83;0.83;;;;;;;-0.82;100.00;98027.53;5073264;28;20240;-70
2023/03/09 05:04:40;;;;;;;5.17;3.67;;;;;;;-0.83;100.00;98031.31;5072885;28;20271;-69
2023/03/09 05:07:06;;;;;;;2.20;2.10;;;;;;;-0.81;100.00;98047.09;5072533;28;20194;-70
2023/03/09 05:09:31;;;;;;;2.87;2.67;;;;;;;-0.81;100.00;98063.97;5072537;28;20217;-70
2023/03/09 05:11:56;;;;;;;6.50;3.80;;;;;;;-0.83;100.00;98060.81;5072998;28;20167;-75
2023/03/09 05:14:22;;;;;;;1.57;1.47;;;;;;;-0.83;100.00;98066.16;5072890;28;20506;-75
2023/03/09 05:16:51;;;;;;;0.33;0.33;;;;;;;-0.82;100.00;98080.34;5071655;28;20265;-75
2023/03/09 05:19:18;;;;;;;3.47;2.47;;;;;;;-0.82;100.00;98077.69;5073351;28;20249;-70
2023/03/09 05:21:43;;;;;;;8.40;6.63;;;;;;;-0.85;100.00;98068.34;5073114;28;20412;-76
2023/03/09 05:24:08;;;;;;;1.10;1.10;;;;;;;-0.80;100.00;98072.81;5072113;28;20489;-74
2023/03/09 05:26:33;;;;;;;1.80;1.70;;;;;;;-0.83;100.00;98073.41;5072884;28;20170;-76
2023/03/09 05:28:59;;;;;;;4.07;3.37;;;;;;;-0.83;100.00;98084.91;5071131;28;20256;-76
2023/03/09 05:31:24;;;;;;;2.07;1.97;;;;;;;-0.82;100.00;98091.88;5072594;28;20685;-75
2023/03/09 05:33:52;;;;;;;2.23;2.13;;;;;;;-0.80;100.00;98103.09;5072521;28;20182;-75
2023/03/09 05:36:20;;;;;;;1.87;1.77;;;;;;;-0.80;100.00;98107.66;5072431;28;20197;-76
2023/03/09 05:38:46;;;;;;;2.13;2.03;;;;;;;-0.76;100.00;98120.16;5072550;28;20421;-76
2023/03/09 05:41:11;;;;;;;7.57;6.73;;;;;;;-0.81;100.00;98125.63;5072438;28;20702;-77
2023/03/09 05:43:41;;;;;;;0.10;0.10;;;;;;;-0.77;100.00;98125.81;5072293;28;20417;-74
2023/03/09 05:46:07;;;;;;;1.27;1.20;;;;;;;-0.80;100.00;98116.50;5072247;28;20480;-76
2023/03/09 05:48:32;;;;;;;3.43;1.00;;;;;;;-0.82;100.00;98110.63;5072003;28;20947;-74
2023/03/09 05:51:00;;;;;;;1.87;1.87;;;;;;;-0.80;100.00;98123.75;5072147;28;20175;-73
2023/03/09 05:53:25;;;;;;;0.93;0.93;;;;;;;-0.80;100.00;98132.56;5072109;28;20181;-76
2023/03/09 05:55:52;;;;;;;4.10;3.70;;;;;;;-0.80;100.00;98134.47;5071889;28;20876;-74
2023/03/09 05:58:17;;;;;;;1.80;1.70;;;;;;;-0.81;100.00;98132.88;5071842;28;20181;-77
2023/03/09 06:00:43;;;;;;;2.03;1.87;;;;;;;-0.82;100.00;98126.72;5071715;28;20429;-75
2023/03/09 06:03:08;;;;;;;0.73;0.73;;;;;;;-0.81;100.00;98128.31;5070484;28;20530;-74
2023/03/09 06:05:34;;;;;;;2.67;2.53;;;;;;;-0.79;100.00;98152.13;5070389;28;20631;-76
2023/03/09 06:07:59;;;;;;;0.00;0.00;;;;;;;-0.77;100.00;98161.47;5071452;28;20200;-76
2023/03/09 06:10:25;;;;;;;2.17;2.03;;;;;;;-0.78;100.00;98157.19;5071763;28;20174;-74
2023/03/09 06:12:50;;;;;;;6.97;5.73;;;;;;;-0.79;100.00;98162.84;5071704;28;20209;-75
2023/03/09 06:15:15;;;;;;;3.93;3.53;;;;;;;-0.78;100.00;98153.72;5071467;28;20167;-75
2023/03/09 06:17:41;;;;;;;0.30;0.30;;;;;;;-0.78;100.00;98161.75;5071471;28;20182;-76
2023/03/09 06:20:08;;;;;;;4.80;0.50;;;;;;;-0.77;100.00;98172.19;5072243;28;20225;-75
2023/03/09 06:22:34;;;;;;;0.00;0.00;;;;;;;-0.72;100.00;98185.53;5071522;28;20528;-75
2023/03/09 06:24:59;;;;;;;1.27;1.27;;;;;;;-0.75;100.00;98187.97;5071473;28;20475;-76
2023/03/09 06:27:24;;;;;;;2.47;2.27;;;;;;;-0.75;100.00;98186.09;5071216;28;20177;-76
2023/03/09 06:29:52;;;;;;;6.50;5.57;;;;;;;-0.74;100.00;98181.53;5071303;28;20198;-75
2023/03/09 06:32:17;;;;;;;13.70;7.30;;;;;;;-0.77;100.00;98169.50;5071354;28;20257;-76
2023/03/09 06:34:43;;;;;;;1.43;1.13;;;;;;;-0.72;100.00;98179.38;5071190;28;20528;-77
2023/03/09 06:37:08;;;;;;;0.87;0.43;;;;;;;-0.70;100.00;98183.34;5071342;28;20629;-75
2023/03/09 06:39:33;;;;;;;12.00;3.67;;;;;;;-0.70;100.00;98182.56;5071224;28;20269;-76
2023/03/09 06:41:59;;;;;;;13.70;2.70;;;;;;;-0.71;100.00;98189.00;5071213;28;20182;-76
2023/03/09 06:44:24;;;;;;;3.27;3.03;;;;;;;-0.72;100.00;98201.63;5071181;28;20645;-78
2023/03/09 06:46:49;;;;;;;4.37;0.63;;;;;;;-0.68;100.00;98194.56;5070794;28;20182;-76
2023/03/09 06:49:14;;;;;;;13.50;6.30;;;;;;;-0.71;100.00;98197.84;5071097;28;20252;-76
2023/03/09 06:51:40;;;;;;;0.00;0.00;;;;;;;-0.64;100.00;98200.94;5069795;28;20190;-75
2023/03/09 06:54:05;;;;;;;3.13;1.63;;;;;;;-0.67;100.00;98203.41;5071039;28;20170;-77
2023/03/09 06:56:30;;;;;;;0.57;0.57;;;;;;;-0.56;100.00;98209.41;5071003;28;20210;-78
2023/03/09 06:58:56;;;;;;;0.67;0.67;;;;;;;-0.55;100.00;98205.63;5070859;28;20232;-76
2023/03/09 07:01:21;;;;;;;1.50;1.40;;;;;;;-0.62;100.00;98212.16;5070959;28;20170;-75
2023/03/09 07:03:46;;;;;;;0.30;0.30;;;;;;;-0.56;100.00;98223.59;5070975;28;20178;-77
2023/03/09 07:06:12;;;;;;;0.70;0.70;;;;;;;-0.56;100.00;98223.59;5069705;28;20205;-78
2023/03/09 07:08:37;;;;;;;0.67;0.67;;;;;;;-0.56;100.00;98233.53;5070504;28;20206;-78
2023/03/09 07:11:03;;;;;;;8.90;4.70;;;;;;;-0.54;100.00;98250.13;5070800;28;20198;-79
2023/03/09 07:13:29;;;;;;;3.13;2.90;;;;;;;-0.56;100.00;98263.03;5070604;28;20621;-79
2023/03/09 07:15:55;;;;;;;10.50;7.97;;;;;;;-0.60;100.00;98265.47;5070117;28;20413;-78
2023/03/09 07:18:21;;;;;;;6.30;5.80;;;;;;;-0.56;100.00;98257.69;5069289;28;20436;-77
2023/03/09 07:20:46;;;;;;;1.17;1.13;;;;;;;-0.55;100.00;98268.09;5070775;28;20194;-74
2023/03/09 07:23:12;;;;;;;1.03;1.03;;;;;;;-0.51;100.00;98265.63;5071039;28;20533;-74
2023/03/09 07:25:38;;;;;;;3.27;1.73;;;;;;;-0.52;100.00;98272.88;5070587;28;20171;-75
2023/03/09 07:28:05;;;;;;;0.60;0.60;;;;;;;-0.50;100.00;98284.09;5070462;28;20178;-75
2023/03/09 07:30:31;;;;;;;2.97;2.77;;;;;;;-0.49;100.00;98285.69;5070648;28;20441;-75
2023/03/09 07:32:57;;;;;;;3.37;3.17;;;;;;;-0.48;100.00;98289.19;5070572;28;20468;-74
2023/03/09 07:35:23;;;;;;;4.23;3.93;;;;;;;-0.49;100.00;98291.06;5070534;28;20579;-74
2023/03/09 07:37:48;;;;;;;1.70;1.70;;;;;;;-0.50;100.00;98288.69;5070304;28;20424;-78
2023/03/09 07:40:13;;;;;;;1.70;1.60;;;;;;;-0.48;100.00;98291.84;5070668;28;20186;-76
2023/03/09 07:42:39;;;;;;;1.03;1.03;;;;;;;-0.47;100.00;98304.19;5070401;28;20178;-72
2023/03/09 07:45:06;;;;;;;13.20;1.93;;;;;;;-0.44;100.00;98315.09;5069134;28;20179;-76
2023/03/09 07:47:32;;;;;;;3.50;1.80;;;;;;;-0.40;100.00;98320.72;5070262;28;20228;-77
2023/03/09 07:49:58;;;;;;;0.00;0.00;;;;;;;-0.37;100.00;98330.84;5070390;28;20555;-72
2023/03/09 07:52:30;;;;;;;1.37;1.27;;;;;;;-0.41;100.00;98332.53;5070387;28;20972;-74
2023/03/09 07:54:58;;;;;;;2.87;2.67;;;;;;;-0.40;100.00;98340.28;5069132;28;20524;-73
2023/03/09 07:57:24;;;;;;;1.33;1.33;;;;;;;-0.38;100.00;98332.75;5070250;28;20416;-77
2023/03/09 07:59:54;;;;;;;7.63;3.00;;;;;;;-0.37;100.00;98337.00;5069034;28;20867;-75
2023/03/09 08:02:20;;;;;;;1.47;1.40;;;;;;;-0.33;100.00;98347.94;5070379;28;20179;-77
2023/03/09 08:04:45;;;;;;;0.10;0.10;;;;;;;-0.39;100.00;98341.88;5068993;28;20416;-77
2023/03/09 08:07:10;;;;;;;3.13;2.93;;;;;;;-0.35;100.00;98360.84;5069964;28;20663;-74
2023/03/09 08:09:37;;;;;;;2.97;2.83;;;;;;;-0.35;100.00;98350.13;5070286;28;20259;-74
2023/03/09 08:12:02;;;;;;;0.10;0.10;;;;;;;-0.31;100.00;98348.44;5070297;28;20196;-76
2023/03/09 08:14:28;;;;;;;1.30;1.30;;;;;;;-0.30;100.00;98358.09;5070447;28;20459;-76
2023/03/09 08:16:53;;;;;;;2.63;2.50;;;;;;;-0.31;100.00;98365.34;5070166;28;20542;-78
2023/03/09 08:19:21;;;;;;;5.03;4.60;;;;;;;-0.31;100.00;98359.97;5070006;28;20657;-75
2023/03/09 08:21:47;;;;;;;0.20;0.20;;;;;;;-0.26;100.00;98366.38;5070195;28;20167;-74
2023/03/09 08:24:12;;;;;;;0.40;0.40;;;;;;;-0.26;100.00;98372.53;5070372;28;20423;-76
2023/03/09 08:26:37;;;;;;;9.23;3.20;;;;;;;-0.31;100.00;98370.72;5070078;28;20202;-74
2023/03/09 08:29:03;;;;;;;0.83;0.83;;;;;;;-0.27;100.00;98381.69;5071618;28;20286;-76
2023/03/09 08:31:28;;;;;;;3.03;1.23;;;;;;;-0.23;100.00;98395.31;5073965;28;20178;-75
2023/03/09 08:33:54;;;;;;;0.00;0.00;;;;;;;-0.20;100.00;98395.50;5072423;28;20178;-77
2023/03/09 08:36:20;;;;;;;2.57;2.37;;;;;;;-0.21;100.00;98387.75;5072209;28;20174;-77
2023/03/09 08:38:47;;;;;;;0.00;0.00;;;;;;;-0.20;100.00;98390.13;5073468;28;20179;-78
2023/03/09 08:41:13;;;;;;;2.17;2.07;;;;;;;-0.20;100.00;98392.81;5073566;28;20634;-77
2023/03/09 08:43:38;;;;;;;1.00;1.00;;;;;;;-0.19;100.00;98391.72;5073498;28;20414;-75
2023/03/09 08:46:04;;;;;;;4.73;2.67;;;;;;;-0.19;100.00;98390.94;5073349;28;20811;-75
2023/03/09 08:48:30;;;;;;;3.47;2.93;;;;;;;-0.18;100.00;98406.75;5073073;28;20252;-76
2023/03/09 08:50:56;;;;;;;5.40;1.70;;;;;;;-0.14;100.00;98421.19;5073386;28;20425;-76
2023/03/09 08:53:22;;;;;;;4.53;4.10;;;;;;;-0.18;100.00;98424.72;5071990;28;20182;-76
2023/03/09 08:55:47;;;;;;;0.67;0.67;;;;;;;-0.14;100.00;98431.13;5073170;28;20482;-75
2023/03/09 08:58:12;;;;;;;1.33;1.33;;;;;;;-0.10;100.00;98441.00;5073000;28;20180;-76
2023/03/09 09:00:38;;;;;;;0.37;0.37;;;;;;;-0.02;100.00;98440.31;5073259;28;20191;-72
2023/03/09 09:03:04;;;;;;;0.40;0.40;;;;;;;0.03;100.00;98457.44;5073049;28;20174;-75
2023/03/09 09:05:29;;;;;;;0.00;0.00;;;;;;;0.06;100.00;98462.22;5073087;28;20282;-74
2023/03/09 09:07:55;;;;;;;0.00;0.00;;;;;;;0.08;100.00;98474.28;5071364;28;20187;-74
2023/03/09 09:10:20;;;;;;;2.80;2.63;;;;;;;-0.07;100.00;98472.59;5072673;28;20212;-75
2023/03/09 09:12:45;;;;;;;1.07;1.07;;;;;;;-0.07;100.00;98475.28;5073318;28;20635;-70
2023/03/09 09:15:13;;;;;;;0.17;0.17;;;;;;;-0.01;100.00;98471.44;5074049;28;20179;-71
2023/03/09 09:17:39;;;;;;;1.93;1.83;;;;;;;0.05;100.00;98469.50;5081661;28;20196;-70
2023/03/09 09:20:06;;;;;;;0.03;0.03;;;;;;;0.05;100.00;98477.53;5073178;28;20421;-70
2023/03/09 09:22:32;;;;;;;0.90;0.90;;;;;;;0.01;100.00;98479.22;5072937;28;20171;-70
2023/03/09 09:24:57;;;;;;;0.37;0.37;;;;;;;0.06;100.00;98481.03;5072782;28;20229;-70
2023/03/09 09:27:23;;;;;;;0.70;0.70;;;;;;;0.06;100.00;98472.97;5072864;28;20174;-70
2023/03/09 09:29:57;;;;;;;4.03;3.80;;;;;;;0.02;100.00;98478.13;5072700;28;20202;-75
2023/03/09 09:32:22;;;;;;;3.13;2.93;;;;;;;0.03;100.00;98479.72;5072700;28;20195;-69
2023/03/09 09:34:48;;;;;;;3.17;2.97;;;;;;;0.04;100.00;98483.22;5072483;28;20626;-70
2023/03/09 09:37:15;;;;;;;2.07;1.97;;;;;;;0.11;100.00;98481.72;5072329;28;20166;-69
2023/03/09 09:39:40;;;;;;;3.00;2.90;;;;;;;0.10;100.00;98482.03;5072205;28;20213;-70
2023/03/09 09:42:14;;;;;;;5.93;2.23;;;;;;;0.08;100.00;98484.22;5071097;28;20208;-69
2023/03/09 09:44:47;;;;;;;0.10;0.10;;;;;;;0.18;100.00;98495.59;5072365;28;20244;-70
2023/03/09 09:47:18;;;;;;;0.20;0.20;;;;;;;0.32;100.00;98506.41;5072216;28;20544;-70
2023/03/09 09:49:48;;;;;;;1.60;1.57;;;;;;;0.33;100.00;98504.53;5072124;28;21144;-69
2023/03/09 09:52:34;;;;;;;0.87;0.73;;;;;;;0.46;100.00;98507.28;5072370;28;20400;-69
2023/03/09 09:55:31;;;;;;;1.47;1.37;;;;;;;0.42;100.00;98513.50;5072192;28;20802;-69
2023/03/09 09:58:19;;;;;;;0.50;0.30;;;;;;;0.37;100.00;98518.97;5071921;28;20175;-70
2023/03/09 10:00:49;;;;;;;2.20;2.10;;;;;;;0.35;100.00;98521.13;5072053;28;20254;-70
2023/03/09 10:03:19;;;;;;;0.00;0.00;;;;;;;0.44;100.00;98522.09;5070725;28;20419;-70
2023/03/09 10:05:55;;;;;;;7.33;6.43;;;;;;;0.35;100.00;98518.47;5070948;28;20413;-70
2023/03/09 10:08:43;;;;;;;0.37;0.37;;;;;;;0.44;100.00;98519.41;5071536;28;20212;-70
2023/03/09 10:11:21;;;;;;;1.23;1.13;;;;;;;0.54;100.00;98524.59;5071883;28;20173;-70
2023/03/09 10:13:51;;;;;;;0.43;0.30;;;;;;;0.51;100.00;98528.66;5071882;28;20503;-70
2023/03/09 10:16:26;;;;;;;0.17;0.17;;;;;;;0.52;100.00;98538.31;5070466;28;20535;-70
2023/03/09 10:18:59;;;;;;;1.30;0.77;;;;;;;0.66;100.00;98530.31;5070651;28;20269;-70
2023/03/09 10:21:40;;;;;;;0.17;0.17;;;;;;;0.75;100.00;98533.16;5071652;28;21002;-69
2023/03/09 10:24:20;;;;;;;0.27;0.27;;;;;;;0.77;100.00;98544.41;5070278;28;20405;-70
2023/03/09 10:27:02;;;;;;;2.37;2.17;;;;;;;0.69;100.00;98545.06;5071394;28;20167;-69
2023/03/09 10:29:43;;;;;;;2.13;1.37;;;;;;;0.58;100.00;98555.97;5071433;28;20228;-69
2023/03/09 10:32:25;;;;;;;0.00;0.00;;;;;;;0.75;100.00;98554.66;5051475;28;20468;-69
2023/03/09 10:35:02;;;;;;;2.20;1.67;;;;;;;0.69;100.00;98564.66;5051200;28;20167;-70
2023/03/09 10:37:34;;;;;;;0.43;0.43;;;;;;;0.71;100.00;98564.38;5050984;28;20434;-69
2023/03/09 10:40:03;;;;;;;1.20;1.20;;;;;;;0.68;100.00;98567.63;5050769;28;20163;-70
2023/03/09 10:42:35;;;;;;;0.27;0.27;;;;;;;0.96;100.00;98568.53;5048998;28;20266;-70
2023/03/09 10:45:30;;;;;;;1.20;1.10;;;;;;;0.94;100.00;98560.78;5049201;28;20225;-69
2023/03/09 10:48:04;;;;;;;1.50;1.50;;;;;;;0.84;100.00;98555.56;5048564;28;20639;-69
2023/03/09 10:50:35;;;;;;;0.37;0.37;;;;;;;1.04;100.00;98563.28;5050541;28;20254;-70
2023/03/09 10:53:22;;;;;;;4.77;4.57;;;;;;;0.98;100.00;98574.41;5051000;28;20203;-70
2023/03/09 10:55:47;;;;;;;2.07;1.93;;;;;;;0.95;100.00;98575.81;5050927;28;20696;-70
2023/03/09 10:58:21;;;;;;;0.83;0.83;;;;;;;0.87;100.00;98579.97;5050815;28;20426;-70
2023/03/09 11:01:17;;;;;;;0.37;0.37;;;;;;;0.84;100.00;98583.22;5050937;28;20164;-70
2023/03/09 11:03:43;;;;;;;5.97;0.67;;;;;;;0.88;100.00;98575.41;5050871;28;20611;-69
2023/03/09 11:06:37;;;;;;;0.83;0.83;;;;;;;0.94;100.00;98582.28;5050867;28;20483;-70
2023/03/09 11:09:17;;;;;;;0.00;0.00;;;;;;;0.96;100.00;98600.78;5050653;28;20199;-70
2023/03/09 11:11:46;;;;;;;0.00;0.00;;;;;;;0.98;100.00;98609.38;5050782;28;20555;-71
2023/03/09 11:14:24;;;;;;;0.73;0.73;;;;;;;1.21;100.00;98621.09;5050679;28;20267;-70
2023/03/09 11:16:52;;;;;;;0.10;0.10;;;;;;;1.07;100.00;98615.69;5049283;28;20252;-70
2023/03/09 11:19:19;;;;;;;0.57;0.57;;;;;;;1.09;100.00;98610.81;5049246;28;20186;-70
2023/03/09 11:22:12;;;;;;;0.00;0.00;;;;;;;1.24;100.00;98620.50;5050816;28;20175;-70
2023/03/09 11:24:43;;;;;;;0.00;0.00;;;;;;;1.20;100.00;98614.94;5047267;28;20183;-70
2023/03/09 11:27:34;;;;;;;6.30;1.63;;;;;;;1.00;100.00;98610.66;5049305;28;20171;-70
2023/03/09 11:30:11;;;;;;;0.17;0.17;;;;;;;1.01;100.00;98628.38;5050888;28;20199;-70